CheckWX is a tool to help pilots better visualize weather data.  It is not intended as a substitute for an official pre-flight weather briefing.

22:06:43 UTC

CYRQ METAR
Trois-Rivieres Airport
Trois-Rivieres, Canada
Current

1 hour ago

CYRQ 192100Z AUTO 20009KT 9SM CLR 10/02 A2999 RMK SLP161
Observed
Oct-19 @ 21:00 UTC
Wind
  • 200° at 9 KTS
Visibility
9 SM
Flight Rules
VFR
Cloud Levels
  • Clear skies
Temperature
10°C / 50°F
Dewpoint
C / 36°F
Humidity
58%
Altimeter
29.99" Hg
Pressure
1015.62 hPa
Previous

2 hours ago

CYRQ 192000Z AUTO 22011KT 9SM CLR 11/02 A2999 RMK SLP159
Observed
Oct-19 @ 20:00 UTC
Wind
  • 220° at 11 KTS
Visibility
9 SM
Flight Rules
VFR
Cloud Levels
  • Clear skies
Temperature
11°C / 52°F
Dewpoint
C / 36°F
Humidity
54%
Altimeter
29.99" Hg
Pressure
1015.62 hPa
Previous

3 hours ago

CYRQ 191900Z AUTO VRB09KT 9SM CLR 11/02 A2999 RMK SLP160
Observed
Oct-19 @ 19:00 UTC
Wind
  • Variable at 9 KTS
Visibility
9 SM
Flight Rules
VFR
Cloud Levels
  • Clear skies
Temperature
11°C / 52°F
Dewpoint
C / 36°F
Humidity
54%
Altimeter
29.99" Hg
Pressure
1015.62 hPa